SÍGUENOS

APP INUMET

Disponible en Google Play

Productos aeronáuticos

  • SIGMET
  • METAR / SPECI
  • TAF
  • AIREP
  • Aviso de aeródromo
  • Pronárea
  • Carta superficie

Mensajes METAR de la última hora

SUAA 191100Z 18010KT 1500 TSRA SCT003 FEW040CB OVC070 12/12 Q1009
SUCA 191100Z XXXXX 5000 RA FEW010 FEW040CB BKN085 12/11 Q1010 RETS
SULS 191100Z 17020G30KT 9000 -RA SCT008 BKN012 14/12 Q1008
SUMU 191100Z 18014KT 2500 TSRA FEW007 FEW040CB OVC070 12/11Q1009 NOSIG
SUSO 191100Z 02008KT 8000 FEW013SCT0983 BKN200 16/15 Q1005
SUMU 191033Z 18016KT 2500 TSRA SCT008 FEW040CB OVC070 12/11 Q1009
SULS 191025Z 18017G27KT 4000 +RA BKN008 13/12 Q1008

Mensajes METAR de la última hora - Internacionales


Argentina
SAAR 191105Z 14011KT 9000 -RA FEW030 FEW035 OVC040 13/11 Q1011
SAAR 191100Z 14007KT 9999 FEW035 OVC100 13/11 Q1011
SABE 191100Z 16005KT 130V230 9000 -DZ SCT031 BKN049 BKN100 13/10 Q1011
SACO 191100Z 18015KT 9999 SCT025 SCT100 15/09 Q1013
SAEZ 191100Z VRB03KT 9000 -RA SCT039 OVC070 12/10 Q1011
SAME 191100Z 00000KT CAVOK 09/02 Q1014
SABE 191024Z 19003KT 5000 -TSRA BKN045 FEW050CB BKN075 13/11 Q1011
Bolivia
SLCP 191100Z 00000KT 9000 FEW020 BKN070 20/19 Q1011
SLLP 191100Z 01004KT 9999 FEW070 M02/M25 Q1037
Brasil
SBBR 191100Z 14002KT CAVOK 20/06 Q1019
SBFI 191100Z 09003KT 9999 BKN015 BKN020 19/18 Q1010
SBFL 191100Z 35004KT 9999 BKN011 18/17 Q1015
SBGR 191100Z 09004KT 5000 -RA BR FEW006 SCT030 BKN080 16/16 Q10 18
SBPA 191100Z 08003KT 9999 FEW040 15/13 Q1011
SBRJ 191100Z 04005KT 4500 BR BKN008 BKN090 21/20 Q1016
SBSP 191100Z 03002KT 7000 BKN006 OVC050 17/15 Q1019
Colombia
SKBO 191100Z 25004KT 9999 MIFG FEW005 SCT080 10/09 A3029
SKBO 191030Z 25003KT 9999 MIFG FEW005 SCT080 10/09 A3029
Chile
SCCI 191100Z 32004KT 9999 FEW004 BKN016 BKN080 M00/M01 Q0994 NOSIG
SCEL 191100Z 15004KT 6000 2000N BR FEW040 06/05 Q1023 NOSIG
Ecuador
SEQM 191100Z 10001KT 3000 BR SCT003 BKN020 12/12 Q1026 BECMG TL1130 4000 RMK A3030
SEQM 191045Z 00000KT 3000 BR SCT003 BKN020 12/12 Q1026 BECMG TL1130 4000 RMK A3029
EEUU
KMIA 191053Z 09005KT 10SM FEW030 FEW060 SCT250 28/23 A2996 RMK AO2 SLP147 T02830233
KDCA 191052Z 34008KT 10SM BKN070 BKN250 25/20 A2988 RMK AO2 SLP117 ACC ALQDS T02500200
KIAD 191052Z 31004KT 10SM BKN070 BKN250 23/21 A2989 RMK AO2 SLP119 T02280206
KJFK 191051Z 28008KT 10SM SCT080 BKN250 23/23 A2983 RMK AO2 SLP100 T02280228
KLGA 191051Z 31007KT 10SM FEW015 SCT150 BKN250 24/22 A2981 RMK AO2 SLP095 T02440222 $
España
LEBL 191100Z 15005KT 110V190 9999 FEW015 BKN023 26/20 Q1019 NOSIG
LEMD 191100Z 16003KT CAVOK 30/14 Q1019 NOSIG
LEBL 191030Z 14005KT 100V170 9999 FEW015 BKN024 26/20 Q1019 NOSIG
LEMD 191030Z 08003KT CAVOK 30/14 Q1019 NOSIG
Francia
LFPO 191100Z 25013KT 9999 BKN033 19/11 Q1021 NOSIG
LFPO 191030Z 24011KT 220V290 9999 BKN033 19/11 Q1021 NOSIG
Inglaterra
EGLL 191050Z AUTO 27015KT 9999 SCT037 18/10 Q1017
Panamá
MPTO 191100Z 05004KT 9999 FEW018 SCT090 24/24 Q1010 NOSIG
Paraguay
SGAS 191100Z 06007KT 9999 FEW033 21/19 Q1006
Venezuela
SVMI 191100Z 00000KT 9999 SCT016 26/23 Q1009

* Datos extraidos del Text DataServer de la NOAA (NOAA TEXT DATA SERVER)

Instituto Uruguayo de Meteorología

Dr. Javier Barrios Amorín 1488 - CP 11200
Mesa Central (598) 1895

Montevideo - Uruguay